createdAt,value
2018-11-05T00:01:47.813Z,12.17
2018-11-05T00:04:13.825Z,11.47
2018-11-05T00:06:39.831Z,11.70
2018-11-05T00:09:05.788Z,12.73
2018-11-05T00:11:32.527Z,11.83
2018-11-05T00:13:59.257Z,11.13
2018-11-05T00:16:25.211Z,11.57
2018-11-05T00:18:51.208Z,11.87
2018-11-05T00:21:17.927Z,12.13
2018-11-05T00:23:43.937Z,13.23
2018-11-05T00:26:09.910Z,12.70
2018-11-05T00:28:36.631Z,12.03
2018-11-05T00:31:03.350Z,11.20
2018-11-05T00:33:29.317Z,12.30
2018-11-05T00:35:56.119Z,10.83
2018-11-05T00:38:22.122Z,10.73
2018-11-05T00:40:48.086Z,10.70
2018-11-05T00:43:14.070Z,11.93
2018-11-05T00:45:40.138Z,9.83
2018-11-05T00:48:06.088Z,11.77
2018-11-05T00:50:32.073Z,11.10
2018-11-05T00:52:58.797Z,11.53
2018-11-05T00:55:24.795Z,10.70
2018-11-05T00:57:51.045Z,10.43
2018-11-05T01:00:17.110Z,11.23
2018-11-05T01:02:43.149Z,10.30
2018-11-05T01:05:09.135Z,10.77
2018-11-05T01:07:35.856Z,12.00
2018-11-05T01:10:01.838Z,10.70
2018-11-05T01:12:27.784Z,9.77
2018-11-05T01:14:53.779Z,10.57
2018-11-05T01:17:19.722Z,10.80
2018-11-05T01:19:45.691Z,10.47
2018-11-05T01:22:11.714Z,10.80
2018-11-05T01:24:37.686Z,11.43
2018-11-05T01:27:04.397Z,10.07
2018-11-05T01:29:31.093Z,11.73
2018-11-05T01:31:57.091Z,10.67
2018-11-05T01:34:23.061Z,10.43
2018-11-05T01:36:49.061Z,10.60
2018-11-05T01:39:15.020Z,10.30
2018-11-05T01:41:41.774Z,11.63
2018-11-05T01:44:07.765Z,10.47
2018-11-05T01:46:33.757Z,10.57
2018-11-05T01:48:59.748Z,10.70
2018-11-05T01:51:26.418Z,10.57
2018-11-05T01:53:52.423Z,11.53
2018-11-05T01:56:18.408Z,10.97
2018-11-05T01:58:45.149Z,11.43
2018-11-05T02:01:11.119Z,10.30
2018-11-05T02:03:37.095Z,10.27
2018-11-05T02:06:03.814Z,11.37
2018-11-05T02:08:29.782Z,10.73
2018-11-05T02:10:55.749Z,10.27
2018-11-05T02:13:21.760Z,10.07
2018-11-05T02:15:47.822Z,11.13
2018-11-05T02:18:13.744Z,10.37
2018-11-05T02:20:39.718Z,10.87
2018-11-05T02:23:05.671Z,9.93
2018-11-05T02:25:31.647Z,9.50
2018-11-05T02:27:57.659Z,10.27
2018-11-05T02:30:24.354Z,10.27
2018-11-05T02:32:50.356Z,10.33
2018-11-05T02:35:16.335Z,10.67
2018-11-05T02:37:43.691Z,10.43
2018-11-05T02:40:10.496Z,10.50
2018-11-05T02:42:36.468Z,10.23
2018-11-05T02:45:02.476Z,10.70
2018-11-05T02:47:29.184Z,9.07
2018-11-05T02:49:55.168Z,11.23
2018-11-05T02:52:21.159Z,11.10
2018-11-05T02:54:47.880Z,9.77
2018-11-05T02:57:13.813Z,10.60
2018-11-05T02:59:40.551Z,10.03
2018-11-05T03:02:06.507Z,9.83
2018-11-05T03:04:32.501Z,10.47
2018-11-05T03:06:59.211Z,11.00
2018-11-05T03:09:25.206Z,10.50
2018-11-05T03:11:51.185Z,10.13
2018-11-05T03:14:17.177Z,12.37
2018-11-05T03:16:43.137Z,10.93
2018-11-05T03:19:09.866Z,10.97
2018-11-05T03:21:35.822Z,10.17
2018-11-05T03:24:01.769Z,10.63
2018-11-05T03:26:27.765Z,12.33
2018-11-05T03:28:53.721Z,11.03
2018-11-05T03:31:19.726Z,11.70
2018-11-05T03:33:45.707Z,10.77
2018-11-05T03:36:11.749Z,11.87
2018-11-05T03:38:37.704Z,11.50
2018-11-05T03:41:03.694Z,11.73
2018-11-05T03:43:29.672Z,12.00
2018-11-05T03:45:55.675Z,11.90
2018-11-05T03:48:21.643Z,11.57
2018-11-05T03:50:48.353Z,11.23
2018-11-05T03:53:14.347Z,11.80
2018-11-05T03:55:40.324Z,11.43
2018-11-05T03:58:07.081Z,11.30
2018-11-05T04:00:33.777Z,11.60
2018-11-05T04:02:59.758Z,11.07
2018-11-05T04:05:25.762Z,11.03
2018-11-05T04:07:52.494Z,11.37
2018-11-05T04:10:18.467Z,12.43
2018-11-05T04:12:44.463Z,11.60
2018-11-05T04:15:10.517Z,10.33
2018-11-05T04:17:37.212Z,10.50
2018-11-05T04:20:03.155Z,11.50
2018-11-05T04:22:29.842Z,11.17
2018-11-05T04:24:56.612Z,11.63
2018-11-05T04:27:23.328Z,11.73
2018-11-05T04:29:50.087Z,11.50
2018-11-05T04:32:16.049Z,11.63
2018-11-05T04:34:42.091Z,11.53
2018-11-05T04:37:08.061Z,11.30
2018-11-05T04:39:34.756Z,11.17
2018-11-05T04:42:00.764Z,11.17
2018-11-05T04:44:26.739Z,11.13
2018-11-05T04:46:52.731Z,10.53
2018-11-05T04:49:18.690Z,11.57
2018-11-05T04:51:45.419Z,10.97
2018-11-05T04:54:11.371Z,11.07
2018-11-05T04:56:38.092Z,11.80
2018-11-05T04:59:04.063Z,10.97
2018-11-05T05:01:30.034Z,11.63
2018-11-05T05:03:56.764Z,10.70
2018-11-05T05:06:22.751Z,10.63
2018-11-05T05:08:48.706Z,10.60
2018-11-05T05:11:14.674Z,11.80
2018-11-05T05:13:40.666Z,10.93
2018-11-05T05:16:06.627Z,10.73
2018-11-05T05:18:32.628Z,11.60
2018-11-05T05:20:58.639Z,11.97
2018-11-05T05:23:25.400Z,11.67
2018-11-05T05:25:51.361Z,11.50
2018-11-05T05:28:17.357Z,12.07
2018-11-05T05:30:43.335Z,11.40
2018-11-05T05:33:09.364Z,12.47
2018-11-05T05:35:35.318Z,12.53
2018-11-05T05:38:01.279Z,13.73
2018-11-05T05:40:27.260Z,13.67
2018-11-05T05:42:53.243Z,13.87
2018-11-05T05:45:19.220Z,13.43
2018-11-05T05:47:45.188Z,13.03
2018-11-05T05:50:11.994Z,14.97
2018-11-05T05:52:37.935Z,13.40
2018-11-05T05:55:03.942Z,15.33
2018-11-05T05:57:29.920Z,15.43
2018-11-05T05:59:56.700Z,15.53
2018-11-05T06:02:22.651Z,14.43
2018-11-05T06:04:48.630Z,15.83
2018-11-05T06:07:14.612Z,16.00
2018-11-05T06:09:40.582Z,16.40
2018-11-05T06:12:06.568Z,16.50
2018-11-05T06:14:32.506Z,16.23
2018-11-05T06:16:59.227Z,16.37
2018-11-05T06:19:25.179Z,16.80
2018-11-05T06:21:51.991Z,17.60
2018-11-05T06:24:17.908Z,17.90
2018-11-05T06:26:43.867Z,17.47
2018-11-05T06:29:09.885Z,17.47
2018-11-05T06:31:36.603Z,18.30
2018-11-05T06:34:03.336Z,16.40
2018-11-05T06:36:29.300Z,16.67
2018-11-05T06:38:55.311Z,16.37
2018-11-05T06:41:21.473Z,16.77
2018-11-05T06:43:47.282Z,16.43
2018-11-05T06:46:13.256Z,16.43
2018-11-05T06:48:39.326Z,16.60
2018-11-05T06:51:05.981Z,16.07
2018-11-05T06:53:31.965Z,15.33
2018-11-05T06:55:57.961Z,16.50
2018-11-05T06:58:23.916Z,15.70
2018-11-05T07:00:49.911Z,16.53
2018-11-05T07:03:16.618Z,15.30
2018-11-05T07:05:42.669Z,15.23
2018-11-05T07:08:08.625Z,15.63
2018-11-05T07:10:35.339Z,15.43
2018-11-05T07:13:01.295Z,15.23
2018-11-05T07:15:27.274Z,15.07
2018-11-05T07:17:53.249Z,14.20
2018-11-05T07:20:19.976Z,15.27
2018-11-05T07:22:45.939Z,14.30
2018-11-05T07:25:11.937Z,14.83
2018-11-05T07:27:38.028Z,13.37
2018-11-05T07:30:04.703Z,13.40
2018-11-05T07:32:30.666Z,13.13
2018-11-05T07:34:56.643Z,15.03
2018-11-05T07:37:22.611Z,13.57
2018-11-05T07:39:49.352Z,14.77
2018-11-05T07:42:15.331Z,13.57
2018-11-05T07:44:41.305Z,13.47
2018-11-05T07:47:07.301Z,13.70
2018-11-05T07:49:33.262Z,14.00
2018-11-05T07:52:00.001Z,14.87
2018-11-05T07:54:26.722Z,12.37
2018-11-05T07:56:52.846Z,14.10
2018-11-05T07:59:19.471Z,13.67
2018-11-05T08:01:45.437Z,13.37
2018-11-05T08:04:12.160Z,12.93
2018-11-05T08:06:38.119Z,13.50
2018-11-05T08:09:04.115Z,13.03
2018-11-05T08:11:30.820Z,14.67
2018-11-05T08:13:56.823Z,14.80
2018-11-05T08:16:22.774Z,13.00
2018-11-05T08:18:48.771Z,15.07
2018-11-05T08:21:14.743Z,13.93
2018-11-05T08:23:41.481Z,13.73
2018-11-05T08:26:07.425Z,14.37
2018-11-05T08:28:34.181Z,15.47
2018-11-05T08:31:00.144Z,13.20
2018-11-05T08:33:26.105Z,14.63
2018-11-05T08:35:52.829Z,14.77
2018-11-05T08:38:19.542Z,14.63
2018-11-05T08:40:45.537Z,15.80
2018-11-05T08:43:11.495Z,15.90
2018-11-05T08:45:37.511Z,15.43
2018-11-05T08:48:03.482Z,15.90
2018-11-05T08:50:29.513Z,16.17
2018-11-05T08:52:55.474Z,16.07
2018-11-05T08:55:21.439Z,14.73
2018-11-05T08:57:48.218Z,16.70
2018-11-05T09:00:14.887Z,16.23
2018-11-05T09:02:40.865Z,15.40
2018-11-05T09:05:06.882Z,17.60
2018-11-05T09:07:32.826Z,15.23
2018-11-05T09:09:58.873Z,17.00
2018-11-05T09:12:25.564Z,16.57
2018-11-05T09:14:51.517Z,16.57
2018-11-05T09:17:17.484Z,16.60
2018-11-05T09:19:44.239Z,16.33
2018-11-05T09:22:10.215Z,16.33
2018-11-05T09:24:36.200Z,16.70
2018-11-05T09:27:02.169Z,16.73
2018-11-05T09:29:28.169Z,16.63
2018-11-05T09:31:54.862Z,17.23
2018-11-05T09:34:21.617Z,17.50
2018-11-05T09:36:47.589Z,16.20
2018-11-05T09:39:13.556Z,17.60
2018-11-05T09:41:39.573Z,17.40
2018-11-05T09:44:06.283Z,18.00
2018-11-05T09:46:32.275Z,17.53
2018-11-05T09:48:58.258Z,17.03
2018-11-05T09:51:25.007Z,18.57
2018-11-05T09:53:51.016Z,18.73
2018-11-05T09:56:17.027Z,18.10
2018-11-05T09:58:43.018Z,18.70
2018-11-05T10:01:08.995Z,17.97
2018-11-05T10:03:35.180Z,18.03
2018-11-05T10:06:00.966Z,16.67
2018-11-05T10:08:26.963Z,18.67
2018-11-05T10:10:53.017Z,17.90
2018-11-05T10:13:19.722Z,17.30
2018-11-05T10:15:46.436Z,17.77
2018-11-05T10:18:12.441Z,18.50
2018-11-05T10:20:38.398Z,17.33
2018-11-05T10:23:04.390Z,17.67
2018-11-05T10:25:30.361Z,16.33
2018-11-05T10:27:56.366Z,17.40
2018-11-05T10:30:23.104Z,18.13
2018-11-05T10:32:49.093Z,18.30
2018-11-05T10:35:15.063Z,17.00
2018-11-05T10:37:41.769Z,18.33
2018-11-05T10:40:07.820Z,17.13
2018-11-05T10:42:33.778Z,16.67
2018-11-05T10:44:59.780Z,17.50
2018-11-05T10:47:26.492Z,16.87
2018-11-05T10:49:52.475Z,16.87
2018-11-05T10:52:18.534Z,17.07
2018-11-05T10:54:44.479Z,16.83
2018-11-05T10:57:11.226Z,16.23
2018-11-05T10:59:37.919Z,17.77
2018-11-05T11:02:03.925Z,17.17
2018-11-05T11:04:29.975Z,17.83
2018-11-05T11:06:56.620Z,16.17
2018-11-05T11:09:22.588Z,16.00
2018-11-05T11:11:55.554Z,17.47
2018-11-05T11:14:22.264Z,17.80
2018-11-05T11:16:48.222Z,17.73
2018-11-05T11:19:14.949Z,18.60
2018-11-05T11:21:40.906Z,16.90
2018-11-05T11:24:06.892Z,17.70
2018-11-05T11:26:32.863Z,19.20
2018-11-05T11:28:58.974Z,19.87
2018-11-05T11:31:25.555Z,20.87
2018-11-05T11:33:51.545Z,19.63
2018-11-05T11:36:17.551Z,20.30
2018-11-05T11:38:43.539Z,20.90
2018-11-05T11:41:09.511Z,22.83
2018-11-05T11:43:35.494Z,21.77
2018-11-05T11:46:02.279Z,20.87
2018-11-05T11:48:28.206Z,21.50
2018-11-05T11:50:54.159Z,20.97
2018-11-05T11:53:20.235Z,19.73
2018-11-05T11:55:46.125Z,20.33
2018-11-05T11:58:12.892Z,20.67
2018-11-05T12:00:39.182Z,20.40
2018-11-05T12:03:05.130Z,20.40
2018-11-05T12:05:31.862Z,19.33
2018-11-05T12:07:58.569Z,21.70
2018-11-05T12:10:24.547Z,21.57
2018-11-05T12:12:51.233Z,21.00
2018-11-05T12:15:17.217Z,21.77
2018-11-05T12:17:43.185Z,20.40
2018-11-05T12:20:09.152Z,20.63
2018-11-05T12:22:35.127Z,20.87
2018-11-05T12:25:01.150Z,20.03
2018-11-05T12:27:27.093Z,19.60
2018-11-05T12:29:53.039Z,20.93
2018-11-05T12:32:19.751Z,19.73
2018-11-05T12:34:45.744Z,20.37
2018-11-05T12:37:11.721Z,19.07
2018-11-05T12:39:37.695Z,19.73
2018-11-05T12:42:03.668Z,18.77
2018-11-05T12:44:30.429Z,19.70
2018-11-05T12:46:57.251Z,19.67
2018-11-05T12:49:23.224Z,20.33
2018-11-05T12:51:49.186Z,18.90
2018-11-05T12:54:15.909Z,19.83
2018-11-05T12:56:41.867Z,19.67
2018-11-05T12:59:07.872Z,17.13
2018-11-05T13:01:34.573Z,17.73
2018-11-05T13:04:00.592Z,18.10
2018-11-05T13:06:26.895Z,17.67
2018-11-05T13:08:52.883Z,16.97
2018-11-05T13:11:19.599Z,17.37
2018-11-05T13:13:45.626Z,16.57
2018-11-05T13:16:12.350Z,16.73
2018-11-05T13:18:38.843Z,18.53
2018-11-05T13:21:05.529Z,18.00
2018-11-05T13:23:31.531Z,18.63
2018-11-05T13:25:57.497Z,17.80
2018-11-05T13:28:23.515Z,17.87
2018-11-05T13:30:49.483Z,18.20
2018-11-05T13:33:15.468Z,17.67
2018-11-05T13:35:41.481Z,19.13
2018-11-05T13:38:08.073Z,20.70
2018-11-05T13:40:33.417Z,18.97
2018-11-05T13:42:59.413Z,19.00
2018-11-05T13:45:25.570Z,21.33
2018-11-05T13:47:52.241Z,20.63
2018-11-05T13:50:17.640Z,20.07
2018-11-05T13:52:43.802Z,19.47
2018-11-05T13:55:09.443Z,21.87
2018-11-05T13:57:35.433Z,19.83
2018-11-05T14:00:01.408Z,20.53
2018-11-05T14:02:27.380Z,19.13
2018-11-05T14:04:53.345Z,19.80
2018-11-05T14:07:19.349Z,19.93
2018-11-05T14:09:45.289Z,19.87
2018-11-05T14:12:11.281Z,20.17
2018-11-05T14:14:37.219Z,19.67
2018-11-05T14:17:03.218Z,18.70
2018-11-05T14:19:29.222Z,20.93
2018-11-05T14:21:55.931Z,20.23
2018-11-05T14:24:21.911Z,20.93
2018-11-05T14:26:47.905Z,20.03
2018-11-05T14:29:15.235Z,21.13
2018-11-05T14:31:40.633Z,20.93
2018-11-05T14:34:06.606Z,21.80
2018-11-05T14:36:32.577Z,20.33
2018-11-05T14:38:58.594Z,21.10
2018-11-05T14:41:24.572Z,21.93
2018-11-05T14:43:51.335Z,19.40
2018-11-05T14:46:17.308Z,20.40
2018-11-05T14:48:43.289Z,20.77
2018-11-05T14:51:09.352Z,18.97
2018-11-05T14:53:35.279Z,19.27
2018-11-05T14:56:01.276Z,18.67
2018-11-05T14:58:27.227Z,18.27
2018-11-05T15:00:53.945Z,18.40
2018-11-05T15:03:19.914Z,18.17
2018-11-05T15:05:45.922Z,16.27
2018-11-05T15:08:11.870Z,16.80
2018-11-05T15:10:37.832Z,16.97
2018-11-05T15:13:03.892Z,15.23
2018-11-05T15:15:29.827Z,15.13
2018-11-05T15:17:55.814Z,16.43
2018-11-05T15:20:21.941Z,14.73
2018-11-05T15:22:47.765Z,14.50
2018-11-05T15:25:13.721Z,15.07
2018-11-05T15:27:39.725Z,14.37
2018-11-05T15:30:06.434Z,15.47
2018-11-05T15:32:32.372Z,15.43
2018-11-05T15:34:58.370Z,14.87
2018-11-05T15:37:24.331Z,14.50
2018-11-05T15:39:51.562Z,14.87
2018-11-05T15:42:17.518Z,15.67
2018-11-05T15:44:44.251Z,14.53
2018-11-05T15:47:10.958Z,16.40
2018-11-05T15:49:36.944Z,15.33
2018-11-05T15:52:03.344Z,15.40
2018-11-05T15:54:29.776Z,15.63
2018-11-05T15:56:55.659Z,13.73
2018-11-05T15:59:21.608Z,15.53
2018-11-05T16:01:48.361Z,14.33
2018-11-05T16:04:15.066Z,16.67
2018-11-05T16:06:41.053Z,13.87
2018-11-05T16:09:07.017Z,14.80
2018-11-05T16:11:33.010Z,15.23
2018-11-05T16:13:59.718Z,15.07
2018-11-05T16:16:26.422Z,15.17
2018-11-05T16:18:52.383Z,15.07
2018-11-05T16:21:18.385Z,14.70
2018-11-05T16:23:45.152Z,14.47
2018-11-05T16:26:11.937Z,14.80
2018-11-05T16:28:38.716Z,16.00
2018-11-05T16:31:05.421Z,13.93
2018-11-05T16:33:31.401Z,15.53
2018-11-05T16:35:58.112Z,15.80
2018-11-05T16:38:24.909Z,15.37
2018-11-05T16:40:50.823Z,15.23
2018-11-05T16:43:16.843Z,15.57
2018-11-05T16:45:42.901Z,14.07
2018-11-05T16:48:08.825Z,13.87
2018-11-05T16:50:34.830Z,15.07
2018-11-05T16:53:00.815Z,14.27
2018-11-05T16:55:26.795Z,14.97
2018-11-05T16:57:52.801Z,14.93
2018-11-05T17:00:18.757Z,12.83
2018-11-05T17:02:45.675Z,15.23
2018-11-05T17:05:11.484Z,14.67
2018-11-05T17:07:37.466Z,13.63
2018-11-05T17:10:03.423Z,13.33
2018-11-05T17:12:29.391Z,14.47
2018-11-05T17:14:56.107Z,12.53
2018-11-05T17:17:22.107Z,14.10
2018-11-05T17:19:48.087Z,14.10
2018-11-05T17:22:14.803Z,14.13
2018-11-05T17:24:40.758Z,14.70
2018-11-05T17:27:07.478Z,14.60
2018-11-05T17:29:33.437Z,13.97
2018-11-05T17:31:59.417Z,15.00
2018-11-05T17:34:26.142Z,14.43
2018-11-05T17:36:52.144Z,14.47
2018-11-05T17:39:18.140Z,14.20
2018-11-05T17:41:44.132Z,14.20
2018-11-05T17:44:10.110Z,13.33
2018-11-05T17:46:36.091Z,13.83
2018-11-05T17:49:02.821Z,13.77
2018-11-05T17:51:29.550Z,14.77
2018-11-05T17:53:55.534Z,15.17
2018-11-05T17:56:21.501Z,13.60
2018-11-05T17:58:47.484Z,15.53
2018-11-05T18:01:13.457Z,13.80
2018-11-05T18:03:40.197Z,13.50
2018-11-05T18:06:06.981Z,13.97
2018-11-05T18:08:33.832Z,12.60
2018-11-05T18:10:59.797Z,13.63
2018-11-05T18:13:25.816Z,13.87
2018-11-05T18:15:51.766Z,13.53
2018-11-05T18:18:18.486Z,13.63
2018-11-05T18:20:45.242Z,12.97
2018-11-05T18:23:11.943Z,14.57
2018-11-05T18:25:37.933Z,14.73
2018-11-05T18:28:03.882Z,13.90
2018-11-05T18:30:29.884Z,13.63
2018-11-05T18:32:55.846Z,14.00
2018-11-05T18:35:22.558Z,14.40
2018-11-05T18:37:48.563Z,13.90
2018-11-05T18:40:14.896Z,13.63
2018-11-05T18:42:40.929Z,13.03
2018-11-05T18:45:06.923Z,13.67
2018-11-05T18:47:32.893Z,14.53
2018-11-05T18:49:58.889Z,14.37
2018-11-05T18:52:24.901Z,15.43
2018-11-05T18:54:50.906Z,14.00
2018-11-05T18:57:16.885Z,14.57
2018-11-05T18:59:42.855Z,14.30
2018-11-05T19:02:09.206Z,14.77
2018-11-05T19:04:35.180Z,13.80
2018-11-05T19:07:01.928Z,14.63
2018-11-05T19:09:28.659Z,14.93
2018-11-05T19:11:54.651Z,15.10
2018-11-05T19:14:20.649Z,14.53
2018-11-05T19:16:46.664Z,15.10
2018-11-05T19:19:12.635Z,15.10
2018-11-05T19:21:38.620Z,14.30
2018-11-05T19:24:04.678Z,14.53
2018-11-05T19:26:30.590Z,14.17
2018-11-05T19:28:56.560Z,14.53
2018-11-05T19:31:23.292Z,15.77
2018-11-05T19:33:50.072Z,15.97
2018-11-05T19:36:16.103Z,14.03
2018-11-05T19:38:43.052Z,14.50
2018-11-05T19:41:09.010Z,14.43
2018-11-05T19:43:35.002Z,14.30
2018-11-05T19:46:00.964Z,13.60
2018-11-05T19:48:26.951Z,14.57
2018-11-05T19:50:52.941Z,15.07
2018-11-05T19:53:18.959Z,15.07
2018-11-05T19:55:45.679Z,14.90
2018-11-05T19:58:12.419Z,14.70
2018-11-05T20:00:39.141Z,15.77
2018-11-05T20:03:05.184Z,14.63
2018-11-05T20:05:31.223Z,15.57
2018-11-05T20:07:57.133Z,14.53
2018-11-05T20:10:23.852Z,14.97
2018-11-05T20:12:49.844Z,14.90
2018-11-05T20:15:15.894Z,14.63
2018-11-05T20:17:42.583Z,15.87
2018-11-05T20:20:08.549Z,14.80
2018-11-05T20:22:34.553Z,13.80
2018-11-05T20:25:00.513Z,14.50
2018-11-05T20:27:26.461Z,15.53
2018-11-05T20:29:53.216Z,13.93
2018-11-05T20:32:19.476Z,15.50
2018-11-05T20:34:45.198Z,15.00
2018-11-05T20:37:11.156Z,14.13
2018-11-05T20:39:37.937Z,16.43
2018-11-05T20:42:03.901Z,15.17
2018-11-05T20:44:29.916Z,15.23
2018-11-05T20:46:55.928Z,15.90
2018-11-05T20:49:21.922Z,14.00
2018-11-05T20:51:47.885Z,14.97
2018-11-05T20:54:13.993Z,15.33
2018-11-05T20:56:39.842Z,14.83
2018-11-05T20:59:06.327Z,15.27
2018-11-05T21:01:32.294Z,15.23
2018-11-05T21:03:58.271Z,14.43
2018-11-05T21:06:24.269Z,14.63
2018-11-05T21:08:50.972Z,14.37
2018-11-05T21:11:16.975Z,15.90
2018-11-05T21:13:42.972Z,15.53
2018-11-05T21:16:08.981Z,15.67
2018-11-05T21:18:35.699Z,15.30
2018-11-05T21:21:01.710Z,14.70
2018-11-05T21:23:27.688Z,14.50
2018-11-05T21:25:53.677Z,14.93
2018-11-05T21:28:20.390Z,14.60
2018-11-05T21:30:46.376Z,14.97
2018-11-05T21:33:12.479Z,16.13
2018-11-05T21:35:38.493Z,15.50
2018-11-05T21:38:04.518Z,15.47
2018-11-05T21:40:31.279Z,14.13
2018-11-05T21:42:57.993Z,15.77
2018-11-05T21:45:24.752Z,15.10
2018-11-05T21:47:51.473Z,15.43
2018-11-05T21:50:18.188Z,15.83
2018-11-05T21:52:44.185Z,15.43
2018-11-05T21:55:10.172Z,15.23
2018-11-05T21:57:36.208Z,15.83
2018-11-05T22:00:02.186Z,15.83
2018-11-05T22:02:28.191Z,16.53
2018-11-05T22:04:54.172Z,16.63
2018-11-05T22:07:20.167Z,15.17
2018-11-05T22:09:46.165Z,16.33
2018-11-05T22:12:12.139Z,15.73
2018-11-05T22:14:38.897Z,15.03
2018-11-05T22:17:04.881Z,17.07
2018-11-05T22:19:30.847Z,16.90
2018-11-05T22:21:56.823Z,15.73
2018-11-05T22:24:22.789Z,15.50
2018-11-05T22:26:48.775Z,15.27
2018-11-05T22:29:15.524Z,14.00
2018-11-05T22:31:42.267Z,15.17
2018-11-05T22:34:08.991Z,15.27
2018-11-05T22:36:35.000Z,14.27
2018-11-05T22:39:00.976Z,15.20
2018-11-05T22:41:26.961Z,14.10
2018-11-05T22:43:52.924Z,14.93
2018-11-05T22:46:18.897Z,16.77
2018-11-05T22:48:44.890Z,14.03
2018-11-05T22:51:10.898Z,14.97
2018-11-05T22:53:36.865Z,14.13
2018-11-05T22:56:02.887Z,14.30
2018-11-05T22:58:28.852Z,14.33
2018-11-05T23:00:54.832Z,13.33
2018-11-05T23:03:20.827Z,12.40
2018-11-05T23:05:46.824Z,14.53
2018-11-05T23:08:12.847Z,13.70
2018-11-05T23:10:38.825Z,12.23
2018-11-05T23:13:04.897Z,13.00
2018-11-05T23:15:30.887Z,12.47
2018-11-05T23:17:57.628Z,11.43
2018-11-05T23:20:24.392Z,13.77
2018-11-05T23:22:51.126Z,12.17
2018-11-05T23:25:17.868Z,12.27
2018-11-05T23:27:44.579Z,13.03
2018-11-05T23:30:10.575Z,11.93
2018-11-05T23:32:37.279Z,13.10
2018-11-05T23:35:03.310Z,12.87
2018-11-05T23:37:29.997Z,13.00
2018-11-05T23:39:55.967Z,12.00
2018-11-05T23:42:21.962Z,13.20
2018-11-05T23:44:47.918Z,12.77
2018-11-05T23:47:13.909Z,12.47
2018-11-05T23:49:40.623Z,12.80
2018-11-05T23:52:06.694Z,12.83
2018-11-05T23:54:32.655Z,13.03
2018-11-05T23:56:58.644Z,14.20
2018-11-05T23:59:24.642Z,12.57
